Kezdőlap
METAR-TAF:

METAR-TAF

Repülőterek :

Minneapolis, Minnesota, Amerikai Egyesült Államok

földrajzi szélesség: 44-52-59N, földrajzi hosszúság: 093-13-44W, magasság: 256 m

Jelenlegi meteorológiai megfigyelések

A jelentés 1 órával és 31 perccel ezelõtt készült, 09:53 UTC
Szélcsend
Hőmérséklet 6°C
Páratartalom 75%
Légköri nyomás 1024 hPa
Látótávolság: 16.1 km
Derült ég

METAR: KMSP 230953Z 00000KT 10SM CLR 06/02 A3024 RMK AO2 SLP244 T00610022

Idő: 06:24 (11:24 UTC)

Előrejelzés

A jelentés 2 órával és 28 perccel ezelõtt készült, 08:56 UTC
Az előrejelzés 23-én 09 óra UTC és 24-én 12 óra UTC között érvényes
Déli szél 3 kt
Látótávolság: 10 km
Derült ég
24-én 0100 órától UTC szerint
Kelet-délkeleti szél 4 kt
Látótávolság: 10 km
Szakadozott felhőzet 10000 lábon

TAF: KMSP 230856Z 2309/2412 19003KT P6SM SKC FM240100 12004KT P6SM BKN100

Meteorológiai megfigyelések és előrejelzések több, mint 4000 repülőtéren (METAR és TAF jelentéseket).

A térképen piros és sárga pontok jelzik az elérhető meteorológiai állomásokat.

Mozgassa az egeret a pont fölött, hogy megjelenjen az állomás neve.

Azután kattintson az időjárási megfigyelések és előrejelzések megtekintéséhez.

A térkép megváltoztatása: kattintson a fekete keresztel jelölt zöld gombra ráközelítéshez, a vonallal jelölt zöld gombra távolításhoz, vagy a zöld nyilakra a szomszédos térképek eléréséhez.


METAR-TAF: